Aérodrome :
LOGIN :

S'inscrire | Disclaimer

   EN    FR    IT 

 










Légende :    VFR   VFR Marginal   IFR   IFR Intensif   IFR Très Intensif
Visi : 
Plafond : 
>= 8 km
>= 3000ft
5 à 8 km
1000 à 3000 ft
1500m à 5 km
500 à 1000 ft
800 à 1500m
200 à 500 ft
< 800m
< 200 ft
Symboles :   Orages  Brouillard  Fortes neiges  Fortes précipitations  Vent > 20 kt
SIGMETs :   Divers  Orages  Givrage  Turbulence  Onde Orograph.  Cendres Volcan.







- Altitude de l'aérodrome : 526 ft
- Code IATA : LTN
- Voir les cartes d'approche


EGGW - London Luton

DERNIER METAR :
  • 162120Z AUTO 18007KT 140V210 6000 OVC017 10/09 Q1020

METARs EXPIRÉS :
  • 162050Z AUTO 17007KT 6000 SCT004 OVC018 10/09 Q1021
  • 162020Z AUTO 18008KT 140V220 6000 BKN004 OVC017 10/09 Q1021
  • 161950Z AUTO 18008KT 6000 BKN004 OVC011 10/10 Q1021
  • 161920Z AUTO 19009KT 7000 BKN005 BKN010 OVC014 10/10 Q1021
  • 161850Z AUTO 19009KT 7000 BKN005 BKN008 OVC012 10/10 Q1021

TAF AMD TAF EGGW
Valide du 16 à 21h jusqu'au 17 à 18h UTC


162106Z 1621/1718 20009KT 9000 SCT020
TEMPO 1621/1703 BKN003
PROB40
TEMPO 1621/1704 0300 FG BKN001
BECMG 1703/1706 9999
TEMPO 1715/1718 8000 -RADZ BKN006
ATIS : +44 1582 395 204
Pas de NOTAMs connus pour ce terrain.



MET'MAP, la Météo Aéronautique d'un coup d'oeil ! - Copyright ORBIFLY Décembre 2007 - Disclaimer

ORBIFLY MET'MAP TEAM :

Programmation & Développement : Alexandra Zaïnal
Conception & Développement : Baudouin d'Aumeries
Co-Programmation & Développement : Marc-Olivier Méhu
Soutien technique & logistique : Manuel Goepfert

Contact : metmap@orbifly.com




SOURCES & CREDITS :

   NOAA